createdAt,value
2023-05-05T00:01:00.860Z,26.85
2023-05-05T00:03:29.508Z,29.98
2023-05-05T00:05:58.118Z,23.58
2023-05-05T00:08:26.374Z,20.10
2023-05-05T00:10:54.827Z,21.85
2023-05-05T00:13:24.833Z,29.77
2023-05-05T00:15:54.684Z,31.02
2023-05-05T00:18:22.935Z,28.73
2023-05-05T00:20:51.564Z,22.55
2023-05-05T00:23:20.792Z,24.63
2023-05-05T00:25:49.046Z,31.90
2023-05-05T00:28:17.031Z,28.58
2023-05-05T00:30:46.676Z,24.05
2023-05-05T00:33:14.903Z,29.58
2023-05-05T00:35:43.376Z,26.58
2023-05-05T00:38:11.612Z,30.02
2023-05-05T00:40:39.726Z,29.30
2023-05-05T00:43:08.354Z,31.15
2023-05-05T00:45:37.450Z,34.33
2023-05-05T00:48:08.005Z,30.65
2023-05-05T00:50:36.832Z,29.95
2023-05-05T00:53:06.750Z,26.92
2023-05-05T00:55:36.774Z,27.20
2023-05-05T00:58:05.568Z,25.20
2023-05-05T01:00:34.321Z,32.03
2023-05-05T01:03:03.343Z,24.42
2023-05-05T01:05:43.600Z,28.25
2023-05-05T01:08:35.367Z,26.45
2023-05-05T01:11:11.550Z,29.23
2023-05-05T01:13:49.334Z,31.15
2023-05-05T01:16:22.266Z,30.23
2023-05-05T01:18:57.923Z,24.90
2023-05-05T01:21:32.748Z,26.95
2023-05-05T01:24:39.386Z,31.73
2023-05-05T01:27:29.440Z,28.15
2023-05-05T01:30:22.132Z,25.30
2023-05-05T01:32:55.386Z,29.52
2023-05-05T01:35:30.184Z,25.13
2023-05-05T01:38:04.318Z,28.65
2023-05-05T01:40:34.965Z,29.50
2023-05-05T01:43:05.076Z,29.33
2023-05-05T01:45:37.005Z,17.23
2023-05-05T01:48:08.292Z,22.77
2023-05-05T01:50:38.013Z,20.25
2023-05-05T01:53:09.674Z,22.42
2023-05-05T01:55:40.663Z,25.83
2023-05-05T01:58:10.416Z,30.50
2023-05-05T02:00:39.649Z,33.67
2023-05-05T02:03:10.438Z,112.60
2023-05-05T02:05:41.270Z,25.75
2023-05-05T02:08:11.037Z,27.17
2023-05-05T02:10:40.944Z,508.98
2023-05-05T02:13:12.552Z,340.63
2023-05-05T02:15:41.564Z,271.33
2023-05-05T02:18:12.236Z,120.63
2023-05-05T02:20:41.725Z,36.20
2023-05-05T02:23:10.086Z,44.70
2023-05-05T02:25:43.229Z,161.65
2023-05-05T02:28:16.825Z,309.50
2023-05-05T02:30:45.342Z,205.48
2023-05-05T02:33:16.570Z,134.65
2023-05-05T02:35:48.014Z,219.60
2023-05-05T02:38:18.982Z,240.10
2023-05-05T02:40:49.463Z,202.35
2023-05-05T02:43:20.698Z,247.75
2023-05-05T02:45:49.357Z,223.20
2023-05-05T02:48:18.953Z,175.10
2023-05-05T02:50:47.020Z,202.05
2023-05-05T02:53:15.477Z,206.35
2023-05-05T02:55:51.838Z,205.98
2023-05-05T02:58:26.004Z,276.48
2023-05-05T03:01:01.931Z,339.52
2023-05-05T03:03:40.085Z,182.65
2023-05-05T03:06:14.479Z,185.68
2023-05-05T03:08:45.966Z,146.18
2023-05-05T03:11:24.306Z,156.82
2023-05-05T03:13:57.686Z,160.40
2023-05-05T03:16:26.921Z,98.07
2023-05-05T03:18:59.017Z,180.35
2023-05-05T03:21:27.668Z,132.20
2023-05-05T03:23:55.736Z,70.95
2023-05-05T03:26:24.824Z,101.43
2023-05-05T03:28:53.127Z,139.88
2023-05-05T03:31:21.248Z,142.05
2023-05-05T03:33:49.406Z,145.40
2023-05-05T03:36:18.890Z,99.93
2023-05-05T03:38:47.022Z,89.03
2023-05-05T03:41:15.044Z,69.82
2023-05-05T03:43:43.053Z,93.97
2023-05-05T03:46:11.400Z,75.60
2023-05-05T03:48:39.892Z,50.10
2023-05-05T03:51:08.003Z,98.82
2023-05-05T03:53:37.499Z,70.80
2023-05-05T03:56:05.962Z,34.75
2023-05-05T03:58:34.323Z,37.45
2023-05-05T04:01:02.348Z,33.97
2023-05-05T04:03:30.532Z,32.20
2023-05-05T04:05:58.813Z,27.88
2023-05-05T04:08:27.009Z,29.23
2023-05-05T04:10:57.491Z,27.00
2023-05-05T04:13:25.591Z,23.45
2023-05-05T04:15:53.767Z,28.77
2023-05-05T04:18:21.807Z,24.60
2023-05-05T04:20:49.979Z,27.05
2023-05-05T04:23:17.979Z,24.85
2023-05-05T04:25:46.111Z,26.65
2023-05-05T04:28:16.034Z,32.90
2023-05-05T04:30:44.041Z,36.83
2023-05-05T04:33:12.111Z,50.78
2023-05-05T04:35:40.190Z,47.15
2023-05-05T04:38:08.289Z,44.60
2023-05-05T04:40:40.324Z,47.45
2023-05-05T04:43:08.505Z,62.65
2023-05-05T04:45:37.948Z,58.97
2023-05-05T04:48:06.705Z,70.93
2023-05-05T04:50:34.817Z,56.08
2023-05-05T04:53:02.913Z,82.72
2023-05-05T04:55:31.017Z,91.78
2023-05-05T04:57:59.055Z,62.20
2023-05-05T05:00:27.555Z,85.63
2023-05-05T05:02:57.411Z,49.97
2023-05-05T05:05:25.510Z,45.42
2023-05-05T05:07:53.518Z,55.75
2023-05-05T05:10:21.665Z,41.78
2023-05-05T05:12:49.752Z,32.75
2023-05-05T05:15:17.738Z,41.25
2023-05-05T05:17:45.934Z,68.25
2023-05-05T05:20:15.361Z,41.28
2023-05-05T05:22:43.463Z,56.17
2023-05-05T05:25:12.068Z,34.67
2023-05-05T05:27:39.974Z,29.45
2023-05-05T05:30:10.017Z,35.78
2023-05-05T05:32:38.354Z,34.67
2023-05-05T05:35:07.247Z,37.83
2023-05-05T05:37:36.915Z,37.80
2023-05-05T05:40:06.272Z,26.85
2023-05-05T05:42:34.671Z,24.45
2023-05-05T05:45:02.864Z,29.45
2023-05-05T05:47:30.871Z,24.63
2023-05-05T05:49:58.950Z,29.80
2023-05-05T05:52:27.149Z,28.85
2023-05-05T05:54:56.657Z,26.65
2023-05-05T05:57:24.774Z,24.90
2023-05-05T05:59:53.962Z,27.30
2023-05-05T06:02:22.074Z,18.70
2023-05-05T06:04:50.237Z,18.75
2023-05-05T06:07:18.391Z,18.92
2023-05-05T06:09:46.629Z,17.85
2023-05-05T06:12:16.179Z,15.73
2023-05-05T06:14:44.437Z,20.42
2023-05-05T06:17:12.630Z,18.50
2023-05-05T06:19:41.150Z,17.85
2023-05-05T06:22:09.177Z,15.38
2023-05-05T06:24:37.340Z,15.15
2023-05-05T06:27:05.616Z,16.27
2023-05-05T06:29:35.244Z,15.40
2023-05-05T06:32:03.413Z,18.08
2023-05-05T06:34:31.562Z,16.33
2023-05-05T06:36:59.836Z,16.35
2023-05-05T06:39:27.869Z,15.45
2023-05-05T06:41:56.031Z,21.92
2023-05-05T06:44:24.163Z,14.98
2023-05-05T06:46:55.212Z,14.07
2023-05-05T06:49:23.385Z,9.68
2023-05-05T06:51:51.419Z,15.65
2023-05-05T06:54:19.589Z,11.45
2023-05-05T06:56:47.780Z,14.25
2023-05-05T06:59:15.803Z,12.98
2023-05-05T07:01:43.843Z,11.40
2023-05-05T07:04:13.578Z,13.65
2023-05-05T07:06:41.650Z,16.48
2023-05-05T07:09:09.893Z,12.93
2023-05-05T07:11:40.218Z,13.15
2023-05-05T07:14:08.278Z,18.42
2023-05-05T07:16:37.324Z,17.02
2023-05-05T07:19:06.636Z,15.10
2023-05-05T07:21:37.077Z,15.45
2023-05-05T07:24:05.494Z,13.75
2023-05-05T07:26:33.961Z,17.60
2023-05-05T07:29:04.603Z,16.17
2023-05-05T07:31:32.733Z,17.73
2023-05-05T07:34:00.887Z,16.95
2023-05-05T07:36:29.370Z,15.32
2023-05-05T07:38:58.919Z,14.07
2023-05-05T07:41:27.252Z,14.50
2023-05-05T07:43:55.365Z,16.08
2023-05-05T07:46:23.494Z,13.70
2023-05-05T07:48:52.899Z,10.82
2023-05-05T07:51:21.543Z,15.93
2023-05-05T07:53:49.656Z,10.70
2023-05-05T07:56:21.568Z,14.68
2023-05-05T07:58:50.018Z,11.90
2023-05-05T08:01:18.190Z,15.70
2023-05-05T08:03:46.337Z,13.80
2023-05-05T08:06:16.777Z,13.40
2023-05-05T08:08:44.849Z,11.43
2023-05-05T08:11:12.871Z,14.23
2023-05-05T08:13:43.045Z,8.68
2023-05-05T08:16:11.218Z,11.48
2023-05-05T08:18:39.895Z,6.07
2023-05-05T08:21:09.212Z,15.43
2023-05-05T08:23:37.743Z,11.43
2023-05-05T08:26:06.739Z,13.70
2023-05-05T08:28:36.524Z,8.20
2023-05-05T08:31:06.850Z,12.88
2023-05-05T08:33:35.256Z,10.00
2023-05-05T08:36:03.701Z,10.95
2023-05-05T08:38:31.899Z,10.73
2023-05-05T08:41:00.157Z,10.82
2023-05-05T08:43:28.262Z,11.00
2023-05-05T08:45:57.298Z,11.52
2023-05-05T08:48:29.982Z,10.63
2023-05-05T08:51:02.636Z,7.43
2023-05-05T08:53:46.002Z,12.23
2023-05-05T08:56:15.616Z,11.07
2023-05-05T08:58:44.659Z,9.70
2023-05-05T09:01:14.840Z,7.20
2023-05-05T09:03:45.140Z,8.82
2023-05-05T09:06:13.454Z,9.32
2023-05-05T09:08:42.530Z,7.40
2023-05-05T09:11:10.603Z,6.47
2023-05-05T09:13:38.779Z,9.75
2023-05-05T09:16:07.564Z,7.90
2023-05-05T09:18:39.052Z,8.80
2023-05-05T09:21:22.519Z,8.30
2023-05-05T09:24:08.849Z,5.15
2023-05-05T09:26:38.845Z,6.60
2023-05-05T09:29:07.494Z,4.63
2023-05-05T09:31:37.372Z,4.43
2023-05-05T09:34:15.932Z,3.67
2023-05-05T09:36:48.313Z,6.00
2023-05-05T09:39:19.058Z,3.90
2023-05-05T09:41:47.421Z,4.50
2023-05-05T09:44:17.149Z,3.88
2023-05-05T09:46:52.661Z,4.18
2023-05-05T09:49:25.681Z,4.35
2023-05-05T09:51:55.854Z,6.95
2023-05-05T09:54:25.326Z,3.40
2023-05-05T09:56:53.565Z,3.58
2023-05-05T09:59:22.235Z,4.03
2023-05-05T10:01:50.908Z,3.97
2023-05-05T10:04:26.323Z,4.00
2023-05-05T10:06:56.341Z,9.55
2023-05-05T10:09:24.802Z,3.78
2023-05-05T10:11:53.970Z,4.38
2023-05-05T10:14:22.670Z,4.60
2023-05-05T10:16:52.088Z,4.05
2023-05-05T10:19:21.843Z,4.25
2023-05-05T10:21:52.483Z,2.30
2023-05-05T10:24:36.242Z,1.75
2023-05-05T10:27:11.512Z,3.15
2023-05-05T10:29:49.619Z,3.58
2023-05-05T10:32:47.434Z,9.00
2023-05-05T10:35:18.103Z,3.13
2023-05-05T10:37:46.770Z,2.25
2023-05-05T10:40:17.791Z,2.05
2023-05-05T10:42:46.199Z,2.20
2023-05-05T10:45:14.367Z,2.15
2023-05-05T10:47:44.332Z,1.10
2023-05-05T10:50:21.405Z,2.28
2023-05-05T10:52:59.543Z,2.35
2023-05-05T10:55:38.326Z,1.75
2023-05-05T10:58:06.458Z,2.58
2023-05-05T11:00:53.094Z,1.83
2023-05-05T11:03:22.942Z,2.55
2023-05-05T11:06:18.205Z,1.92
2023-05-05T11:08:46.550Z,2.80
2023-05-05T11:11:16.190Z,2.03
2023-05-05T11:13:44.378Z,1.67
2023-05-05T11:16:44.993Z,1.50
2023-05-05T11:19:48.191Z,3.15
2023-05-05T11:22:17.630Z,2.65
2023-05-05T11:24:46.392Z,1.70
2023-05-05T11:27:15.839Z,2.47
2023-05-05T11:30:06.881Z,2.92
2023-05-05T11:32:35.137Z,2.30
2023-05-05T11:35:03.958Z,3.10
2023-05-05T11:37:32.134Z,3.08
2023-05-05T11:40:19.975Z,3.05
2023-05-05T11:42:49.465Z,2.08
2023-05-05T11:45:22.925Z,1.88
2023-05-05T11:47:51.123Z,2.50
2023-05-05T11:50:23.231Z,1.80
2023-05-05T11:52:51.467Z,1.80
2023-05-05T11:55:26.077Z,5.28
2023-05-05T12:00:34.474Z,1.90
2023-05-05T12:03:02.802Z,1.17
2023-05-05T12:05:31.063Z,1.70
2023-05-05T12:07:59.851Z,2.20
2023-05-05T12:10:31.833Z,2.20
2023-05-05T12:13:01.432Z,1.58
2023-05-05T12:15:30.594Z,1.55
2023-05-05T12:18:03.106Z,1.60
2023-05-05T12:20:32.785Z,3.33
2023-05-05T12:23:02.158Z,1.92
2023-05-05T12:25:38.201Z,2.45
2023-05-05T12:28:09.492Z,2.10
2023-05-05T12:30:37.683Z,5.38
2023-05-05T12:33:07.363Z,1.83
2023-05-05T12:35:36.616Z,2.00
2023-05-05T12:38:04.659Z,1.92
2023-05-05T12:40:46.509Z,1.67
2023-05-05T12:43:29.833Z,2.50
2023-05-05T12:46:06.078Z,2.30
2023-05-05T12:48:34.616Z,1.65
2023-05-05T12:51:20.529Z,2.05
2023-05-05T12:53:50.118Z,2.35
2023-05-05T12:56:34.589Z,2.20
2023-05-05T12:59:05.624Z,1.77
2023-05-05T13:01:33.898Z,2.78
2023-05-05T13:04:12.959Z,2.17
2023-05-05T13:06:42.630Z,3.35
2023-05-05T13:09:11.482Z,3.83
2023-05-05T13:11:40.829Z,3.55
2023-05-05T13:14:10.226Z,4.63
2023-05-05T13:16:38.615Z,4.25
2023-05-05T13:19:06.718Z,4.53
2023-05-05T13:21:35.120Z,2.75
2023-05-05T13:24:18.237Z,3.50
2023-05-05T13:26:52.209Z,7.00
2023-05-05T13:29:21.768Z,7.85
2023-05-05T13:31:50.720Z,8.93
2023-05-05T13:34:19.099Z,9.50
2023-05-05T13:36:47.133Z,11.10
2023-05-05T13:39:15.134Z,19.33
2023-05-05T13:41:44.668Z,14.40
2023-05-05T13:44:13.733Z,21.17
2023-05-05T13:46:43.607Z,15.48
2023-05-05T13:49:11.727Z,22.05
2023-05-05T13:51:39.925Z,20.52
2023-05-05T13:54:08.483Z,14.85
2023-05-05T13:56:37.918Z,11.23
2023-05-05T13:59:05.838Z,9.95
2023-05-05T14:01:33.839Z,16.90
2023-05-05T14:04:05.355Z,9.77
2023-05-05T14:06:34.042Z,16.65
2023-05-05T14:09:05.633Z,22.20
2023-05-05T14:11:33.864Z,10.40
2023-05-05T14:14:01.960Z,10.93
2023-05-05T14:16:30.080Z,11.82
2023-05-05T14:18:58.300Z,10.85
2023-05-05T14:21:27.667Z,15.23
2023-05-05T14:23:55.827Z,14.40
2023-05-05T14:26:23.940Z,22.90
2023-05-05T14:28:51.925Z,33.30
2023-05-05T14:31:20.143Z,18.50
2023-05-05T14:33:48.224Z,22.90
2023-05-05T14:36:16.306Z,23.30
2023-05-05T14:38:45.905Z,26.85
2023-05-05T14:41:14.060Z,26.90
2023-05-05T14:43:42.232Z,14.77
2023-05-05T14:46:10.466Z,30.83
2023-05-05T14:48:38.584Z,25.35
2023-05-05T14:51:06.735Z,16.05
2023-05-05T14:53:35.849Z,17.25
2023-05-05T14:56:05.734Z,20.67
2023-05-05T14:58:33.886Z,11.23
2023-05-05T15:01:02.110Z,17.73
2023-05-05T15:03:30.466Z,22.65
2023-05-05T15:05:58.669Z,15.40
2023-05-05T15:08:26.714Z,17.67
2023-05-05T15:10:54.706Z,18.48
2023-05-05T15:13:24.161Z,22.15
2023-05-05T15:15:52.456Z,14.80
2023-05-05T15:18:20.593Z,19.70
2023-05-05T15:20:48.660Z,26.75
2023-05-05T15:23:16.778Z,21.38
2023-05-05T15:25:45.443Z,18.70
2023-05-05T15:28:13.547Z,17.17
2023-05-05T15:30:42.899Z,20.92
2023-05-05T15:33:10.955Z,17.02
2023-05-05T15:35:39.406Z,20.08
2023-05-05T15:38:07.393Z,16.40
2023-05-05T15:40:35.525Z,26.50
2023-05-05T15:43:03.576Z,25.02
2023-05-05T15:45:31.602Z,17.70
2023-05-05T15:48:01.131Z,24.17
2023-05-05T15:50:29.298Z,32.58
2023-05-05T15:52:58.058Z,16.98
2023-05-05T15:55:26.334Z,20.13
2023-05-05T15:57:54.590Z,20.98
2023-05-05T16:00:23.585Z,35.60
2023-05-05T16:02:51.819Z,25.27
2023-05-05T16:05:23.100Z,30.92
2023-05-05T16:07:52.565Z,23.90
2023-05-05T16:10:20.803Z,37.42
2023-05-05T16:12:49.099Z,28.98
2023-05-05T16:15:17.356Z,27.63
2023-05-05T16:17:45.682Z,39.22
2023-05-05T16:20:14.221Z,43.58
2023-05-05T16:22:43.636Z,28.70
2023-05-05T16:25:11.732Z,38.78
2023-05-05T16:27:39.784Z,44.95
2023-05-05T16:30:10.288Z,41.25
2023-05-05T16:32:38.329Z,46.65
2023-05-05T16:35:07.850Z,54.08
2023-05-05T16:37:36.113Z,41.35
2023-05-05T16:40:06.712Z,39.42
2023-05-05T16:42:34.893Z,26.80
2023-05-05T16:45:03.053Z,25.70
2023-05-05T16:47:31.260Z,18.88
2023-05-05T16:49:59.537Z,16.58
2023-05-05T16:52:27.784Z,13.43
2023-05-05T16:54:56.758Z,12.77
2023-05-05T16:57:26.220Z,11.05
2023-05-05T16:59:56.354Z,11.50
2023-05-05T17:02:24.521Z,11.65
2023-05-05T17:04:52.867Z,14.63
2023-05-05T17:07:21.447Z,11.48
2023-05-05T17:09:49.592Z,10.65
2023-05-05T17:12:20.140Z,9.00
2023-05-05T17:14:49.641Z,13.50
2023-05-05T17:17:17.713Z,15.02
2023-05-05T17:19:46.078Z,6.60
2023-05-05T17:22:14.068Z,7.25
2023-05-05T17:24:43.083Z,54.35
2023-05-05T17:27:11.346Z,22.92
2023-05-05T17:29:41.224Z,9.18
2023-05-05T17:32:10.918Z,7.88
2023-05-05T17:34:39.115Z,7.65
2023-05-05T17:37:07.260Z,10.63
2023-05-05T17:39:35.320Z,9.43
2023-05-05T17:42:03.484Z,10.63
2023-05-05T17:44:32.702Z,9.50
2023-05-05T17:47:02.790Z,8.90
2023-05-05T17:49:32.600Z,34.20
2023-05-05T17:52:00.710Z,14.75
2023-05-05T17:54:28.744Z,40.35
2023-05-05T17:56:57.458Z,13.15
2023-05-05T17:59:25.555Z,11.85
2023-05-05T18:01:53.636Z,20.50
2023-05-05T18:04:21.654Z,10.13
2023-05-05T18:06:51.228Z,8.38
2023-05-05T18:09:20.775Z,57.30
2023-05-05T18:11:48.908Z,63.72
2023-05-05T18:14:18.711Z,43.83
2023-05-05T18:16:49.927Z,28.67
2023-05-05T18:19:18.347Z,39.88
2023-05-05T18:21:46.487Z,32.40
2023-05-05T18:24:20.310Z,25.83
2023-05-05T18:26:50.050Z,27.75
2023-05-05T18:29:18.908Z,21.15
2023-05-05T18:31:48.830Z,68.97
2023-05-05T18:34:17.846Z,53.60
2023-05-05T18:36:46.732Z,82.57
2023-05-05T18:39:16.414Z,62.25
2023-05-05T18:41:44.697Z,49.25
2023-05-05T18:44:12.890Z,40.05
2023-05-05T18:46:41.139Z,40.42
2023-05-05T18:49:09.512Z,29.90
2023-05-05T18:51:37.513Z,22.08
2023-05-05T18:54:05.832Z,36.00
2023-05-05T18:56:35.297Z,30.00
2023-05-05T18:59:03.442Z,54.63
2023-05-05T19:01:31.555Z,30.52
2023-05-05T19:03:59.707Z,34.08
2023-05-05T19:06:27.966Z,24.98
2023-05-05T19:08:56.997Z,19.30
2023-05-05T19:11:25.245Z,18.17
2023-05-05T19:13:54.699Z,18.30
2023-05-05T19:16:23.001Z,16.10
2023-05-05T19:18:51.327Z,16.35
2023-05-05T19:21:19.443Z,20.95
2023-05-05T19:23:47.649Z,17.45
2023-05-05T19:26:16.243Z,18.88
2023-05-05T19:28:44.364Z,22.13
2023-05-05T19:31:14.055Z,18.52
2023-05-05T19:33:45.683Z,20.30
2023-05-05T19:36:14.147Z,18.58
2023-05-05T19:38:44.593Z,20.80
2023-05-05T19:41:13.268Z,18.02
2023-05-05T19:43:41.518Z,22.58
2023-05-05T19:46:09.613Z,19.45
2023-05-05T19:48:39.271Z,20.05
2023-05-05T19:51:07.477Z,18.30
2023-05-05T19:53:35.870Z,15.48
2023-05-05T19:56:04.838Z,19.58
2023-05-05T19:58:53.455Z,20.25
2023-05-05T20:01:21.687Z,14.82
2023-05-05T20:03:51.500Z,19.80
2023-05-05T20:06:19.643Z,19.52
2023-05-05T20:08:47.743Z,17.25
2023-05-05T20:11:18.272Z,13.88
2023-05-05T20:13:46.702Z,15.75
2023-05-05T20:16:15.076Z,16.48
2023-05-05T20:18:43.331Z,17.30
2023-05-05T20:21:12.795Z,16.52
2023-05-05T20:23:42.938Z,12.75
2023-05-05T20:26:11.381Z,15.38
2023-05-05T20:28:44.188Z,13.57
2023-05-05T20:31:13.219Z,11.50
2023-05-05T20:33:41.358Z,11.95
2023-05-05T20:36:09.685Z,13.43
2023-05-05T20:38:39.168Z,15.88
2023-05-05T20:41:07.100Z,15.57
2023-05-05T20:43:35.164Z,18.83
2023-05-05T20:46:03.454Z,19.05
2023-05-05T20:48:31.504Z,17.83
2023-05-05T20:50:59.575Z,28.40
2023-05-05T20:53:27.765Z,27.70
2023-05-05T20:55:57.178Z,19.20
2023-05-05T20:58:25.840Z,17.40
2023-05-05T21:00:53.920Z,20.77
2023-05-05T21:03:22.054Z,23.02
2023-05-05T21:05:50.150Z,24.38
2023-05-05T21:08:18.219Z,21.33
2023-05-05T21:10:46.399Z,22.15
2023-05-05T21:13:15.993Z,17.05
2023-05-05T21:15:44.025Z,18.38
2023-05-05T21:18:12.195Z,19.55
2023-05-05T21:20:40.292Z,18.20
2023-05-05T21:23:08.361Z,17.92
2023-05-05T21:25:37.561Z,18.27
2023-05-05T21:28:06.215Z,18.33
2023-05-05T21:30:35.676Z,23.20
2023-05-05T21:33:03.826Z,19.55
2023-05-05T21:35:31.962Z,13.52
2023-05-05T21:38:00.156Z,16.70
2023-05-05T21:40:28.407Z,18.40
2023-05-05T21:42:56.682Z,17.73
2023-05-05T21:45:25.016Z,16.17
2023-05-05T21:47:54.605Z,15.40
2023-05-05T21:50:22.819Z,15.30
2023-05-05T21:52:50.952Z,16.50
2023-05-05T21:55:19.207Z,15.38
2023-05-05T21:57:47.372Z,15.02
2023-05-05T22:00:16.925Z,14.48
2023-05-05T22:02:45.223Z,18.42
2023-05-05T22:05:14.740Z,14.45
2023-05-05T22:07:42.781Z,13.57
2023-05-05T22:10:11.678Z,15.20
2023-05-05T22:12:39.954Z,15.85
2023-05-05T22:15:09.505Z,14.90
2023-05-05T22:17:37.932Z,18.52
2023-05-05T22:20:10.050Z,16.55
2023-05-05T22:22:39.962Z,15.52
2023-05-05T22:25:08.940Z,12.55
2023-05-05T22:27:37.166Z,15.75
2023-05-05T22:30:06.169Z,14.52
2023-05-05T22:32:34.283Z,13.05
2023-05-05T22:35:02.452Z,15.75
2023-05-05T22:37:30.579Z,15.98
2023-05-05T22:39:59.992Z,15.65
2023-05-05T22:42:28.096Z,13.82
2023-05-05T22:44:58.455Z,12.05
2023-05-05T22:47:26.911Z,12.38
2023-05-05T22:49:55.176Z,14.52
2023-05-05T22:52:25.795Z,12.98
2023-05-05T22:54:53.856Z,14.32
2023-05-05T22:57:23.478Z,12.18
2023-05-05T22:59:51.893Z,12.35
2023-05-05T23:02:20.023Z,13.48
2023-05-05T23:04:48.096Z,14.55
2023-05-05T23:07:16.294Z,31.42
2023-05-05T23:09:44.217Z,35.08
2023-05-05T23:12:12.205Z,30.25
2023-05-05T23:14:41.942Z,27.17
2023-05-05T23:17:10.327Z,19.05
2023-05-05T23:19:38.811Z,20.00
2023-05-05T23:22:06.910Z,19.52
2023-05-05T23:24:34.861Z,20.45
2023-05-05T23:27:03.232Z,16.52
2023-05-05T23:29:31.482Z,16.05
2023-05-05T23:32:00.920Z,15.20
2023-05-05T23:34:29.075Z,16.60
2023-05-05T23:36:57.200Z,15.82
2023-05-05T23:39:25.146Z,20.05
2023-05-05T23:41:53.163Z,18.25
2023-05-05T23:44:21.193Z,14.48
2023-05-05T23:46:49.253Z,16.25
2023-05-05T23:49:19.002Z,18.02
2023-05-05T23:51:47.191Z,14.30
2023-05-05T23:54:15.216Z,20.98
2023-05-05T23:56:43.262Z,13.95
2023-05-05T23:59:11.356Z,13.10
